sensor_id;sensor_type;location;lat;lon;timestamp;P1;durP1;ratioP1;P2;durP2;ratioP2
19199;SDS011;9732;52.498;5.408;2022-10-31T00:01:41;5.70;;;2.80;;
19199;SDS011;9732;52.498;5.408;2022-10-31T00:04:07;12.18;;;3.70;;
19199;SDS011;9732;52.498;5.408;2022-10-31T00:06:34;9.05;;;3.80;;
19199;SDS011;9732;52.498;5.408;2022-10-31T00:09:03;4.55;;;2.92;;
19199;SDS011;9732;52.498;5.408;2022-10-31T00:11:30;6.10;;;3.38;;
19199;SDS011;9732;52.498;5.408;2022-10-31T00:13:57;6.28;;;3.22;;
19199;SDS011;9732;52.498;5.408;2022-10-31T00:16:24;7.38;;;3.88;;
19199;SDS011;9732;52.498;5.408;2022-10-31T00:18:52;10.68;;;3.25;;
19199;SDS011;9732;52.498;5.408;2022-10-31T00:21:21;6.65;;;3.20;;
19199;SDS011;9732;52.498;5.408;2022-10-31T00:23:49;6.90;;;3.35;;
19199;SDS011;9732;52.498;5.408;2022-10-31T00:26:17;4.95;;;3.08;;
19199;SDS011;9732;52.498;5.408;2022-10-31T00:28:44;7.45;;;3.50;;
19199;SDS011;9732;52.498;5.408;2022-10-31T00:31:11;6.82;;;3.88;;
19199;SDS011;9732;52.498;5.408;2022-10-31T00:33:39;7.55;;;3.92;;
19199;SDS011;9732;52.498;5.408;2022-10-31T00:36:07;6.85;;;3.92;;
19199;SDS011;9732;52.498;5.408;2022-10-31T00:38:37;9.52;;;4.35;;
19199;SDS011;9732;52.498;5.408;2022-10-31T00:41:03;11.60;;;5.32;;
19199;SDS011;9732;52.498;5.408;2022-10-31T00:43:31;8.25;;;4.75;;
19199;SDS011;9732;52.498;5.408;2022-10-31T00:45:58;7.35;;;4.45;;
19199;SDS011;9732;52.498;5.408;2022-10-31T00:48:25;8.80;;;5.20;;
19199;SDS011;9732;52.498;5.408;2022-10-31T00:50:52;9.35;;;4.88;;
19199;SDS011;9732;52.498;5.408;2022-10-31T00:53:18;9.73;;;4.40;;
19199;SDS011;9732;52.498;5.408;2022-10-31T00:55:45;9.00;;;5.00;;
19199;SDS011;9732;52.498;5.408;2022-10-31T00:58:12;10.35;;;5.10;;
19199;SDS011;9732;52.498;5.408;2022-10-31T01:00:40;14.40;;;5.32;;
19199;SDS011;9732;52.498;5.408;2022-10-31T01:03:07;11.73;;;5.18;;
19199;SDS011;9732;52.498;5.408;2022-10-31T01:05:34;9.40;;;4.70;;
19199;SDS011;9732;52.498;5.408;2022-10-31T01:08:01;10.60;;;4.38;;
19199;SDS011;9732;52.498;5.408;2022-10-31T01:10:28;9.25;;;4.32;;
19199;SDS011;9732;52.498;5.408;2022-10-31T01:12:55;9.38;;;4.95;;
19199;SDS011;9732;52.498;5.408;2022-10-31T01:15:22;12.35;;;4.50;;
19199;SDS011;9732;52.498;5.408;2022-10-31T01:17:50;10.02;;;5.47;;
19199;SDS011;9732;52.498;5.408;2022-10-31T01:20:17;11.13;;;4.60;;
19199;SDS011;9732;52.498;5.408;2022-10-31T01:22:44;10.55;;;5.25;;
19199;SDS011;9732;52.498;5.408;2022-10-31T01:25:11;11.00;;;4.72;;
19199;SDS011;9732;52.498;5.408;2022-10-31T01:27:37;8.77;;;4.32;;
19199;SDS011;9732;52.498;5.408;2022-10-31T01:30:07;9.90;;;5.03;;
19199;SDS011;9732;52.498;5.408;2022-10-31T01:32:34;12.93;;;5.38;;
19199;SDS011;9732;52.498;5.408;2022-10-31T01:35:02;11.07;;;4.47;;
19199;SDS011;9732;52.498;5.408;2022-10-31T01:37:30;9.32;;;4.43;;
19199;SDS011;9732;52.498;5.408;2022-10-31T01:39:57;10.65;;;4.22;;
19199;SDS011;9732;52.498;5.408;2022-10-31T01:42:24;8.52;;;4.70;;
19199;SDS011;9732;52.498;5.408;2022-10-31T01:44:56;9.70;;;5.07;;
19199;SDS011;9732;52.498;5.408;2022-10-31T01:47:28;12.35;;;4.88;;
19199;SDS011;9732;52.498;5.408;2022-10-31T01:50:00;15.25;;;6.13;;
19199;SDS011;9732;52.498;5.408;2022-10-31T01:52:30;12.73;;;5.47;;
19199;SDS011;9732;52.498;5.408;2022-10-31T01:55:01;9.20;;;4.53;;
19199;SDS011;9732;52.498;5.408;2022-10-31T01:57:31;7.28;;;4.53;;
19199;SDS011;9732;52.498;5.408;2022-10-31T02:00:02;9.15;;;5.03;;
19199;SDS011;9732;52.498;5.408;2022-10-31T02:02:32;11.20;;;5.03;;
19199;SDS011;9732;52.498;5.408;2022-10-31T02:04:58;12.50;;;5.05;;
19199;SDS011;9732;52.498;5.408;2022-10-31T02:07:30;11.93;;;6.03;;
19199;SDS011;9732;52.498;5.408;2022-10-31T02:10:02;11.10;;;5.07;;
19199;SDS011;9732;52.498;5.408;2022-10-31T02:12:30;11.10;;;5.22;;
19199;SDS011;9732;52.498;5.408;2022-10-31T02:14:58;11.10;;;5.18;;
19199;SDS011;9732;52.498;5.408;2022-10-31T02:17:26;12.30;;;5.20;;
19199;SDS011;9732;52.498;5.408;2022-10-31T02:19:54;8.65;;;4.50;;
19199;SDS011;9732;52.498;5.408;2022-10-31T02:22:29;11.80;;;5.75;;
19199;SDS011;9732;52.498;5.408;2022-10-31T02:25:08;11.73;;;6.13;;
19199;SDS011;9732;52.498;5.408;2022-10-31T02:27:51;8.32;;;5.63;;
19199;SDS011;9732;52.498;5.408;2022-10-31T02:30:37;9.85;;;5.78;;
19199;SDS011;9732;52.498;5.408;2022-10-31T02:33:17;12.70;;;5.88;;
19199;SDS011;9732;52.498;5.408;2022-10-31T02:35:54;11.95;;;6.03;;
19199;SDS011;9732;52.498;5.408;2022-10-31T02:38:27;10.95;;;6.03;;
19199;SDS011;9732;52.498;5.408;2022-10-31T02:41:04;10.55;;;6.78;;
19199;SDS011;9732;52.498;5.408;2022-10-31T02:43:38;12.98;;;6.35;;
19199;SDS011;9732;52.498;5.408;2022-10-31T02:46:11;11.07;;;6.30;;
19199;SDS011;9732;52.498;5.408;2022-10-31T02:48:43;14.27;;;6.38;;
19199;SDS011;9732;52.498;5.408;2022-10-31T02:51:12;11.55;;;6.07;;
19199;SDS011;9732;52.498;5.408;2022-10-31T02:53:40;14.02;;;6.40;;
19199;SDS011;9732;52.498;5.408;2022-10-31T02:56:09;11.02;;;6.00;;
19199;SDS011;9732;52.498;5.408;2022-10-31T02:58:39;9.60;;;5.68;;
19199;SDS011;9732;52.498;5.408;2022-10-31T03:01:14;12.80;;;6.03;;
19199;SDS011;9732;52.498;5.408;2022-10-31T03:04:31;11.85;;;5.72;;
19199;SDS011;9732;52.498;5.408;2022-10-31T03:07:07;8.88;;;5.70;;
19199;SDS011;9732;52.498;5.408;2022-10-31T03:09:42;10.05;;;5.80;;
19199;SDS011;9732;52.498;5.408;2022-10-31T03:12:18;11.65;;;5.95;;
19199;SDS011;9732;52.498;5.408;2022-10-31T03:14:51;11.73;;;5.63;;
19199;SDS011;9732;52.498;5.408;2022-10-31T03:17:23;9.40;;;6.15;;
19199;SDS011;9732;52.498;5.408;2022-10-31T03:19:57;10.18;;;6.10;;
19199;SDS011;9732;52.498;5.408;2022-10-31T03:22:27;13.32;;;5.85;;
19199;SDS011;9732;52.498;5.408;2022-10-31T03:24:58;9.85;;;5.40;;
19199;SDS011;9732;52.498;5.408;2022-10-31T03:27:28;8.82;;;5.18;;
19199;SDS011;9732;52.498;5.408;2022-10-31T03:29:58;8.45;;;5.30;;
19199;SDS011;9732;52.498;5.408;2022-10-31T03:32:29;13.07;;;6.03;;
19199;SDS011;9732;52.498;5.408;2022-10-31T03:35:02;15.65;;;6.45;;
19199;SDS011;9732;52.498;5.408;2022-10-31T03:37:32;13.02;;;6.35;;
19199;SDS011;9732;52.498;5.408;2022-10-31T03:40:02;12.70;;;6.38;;
19199;SDS011;9732;52.498;5.408;2022-10-31T03:42:33;12.70;;;6.40;;
19199;SDS011;9732;52.498;5.408;2022-10-31T03:45:04;11.18;;;6.30;;
19199;SDS011;9732;52.498;5.408;2022-10-31T03:47:34;10.00;;;6.07;;
19199;SDS011;9732;52.498;5.408;2022-10-31T03:50:04;10.18;;;5.97;;
19199;SDS011;9732;52.498;5.408;2022-10-31T03:52:33;14.48;;;6.40;;
19199;SDS011;9732;52.498;5.408;2022-10-31T03:55:06;10.15;;;5.22;;
19199;SDS011;9732;52.498;5.408;2022-10-31T03:57:37;12.93;;;6.65;;
19199;SDS011;9732;52.498;5.408;2022-10-31T04:00:10;10.63;;;6.07;;
19199;SDS011;9732;52.498;5.408;2022-10-31T04:02:40;11.88;;;6.72;;
19199;SDS011;9732;52.498;5.408;2022-10-31T04:05:10;12.60;;;6.05;;
19199;SDS011;9732;52.498;5.408;2022-10-31T04:07:45;10.38;;;6.80;;
19199;SDS011;9732;52.498;5.408;2022-10-31T04:10:16;12.55;;;7.50;;
19199;SDS011;9732;52.498;5.408;2022-10-31T04:12:44;15.52;;;7.82;;
19199;SDS011;9732;52.498;5.408;2022-10-31T04:15:18;12.65;;;6.55;;
19199;SDS011;9732;52.498;5.408;2022-10-31T04:17:46;13.02;;;6.70;;
19199;SDS011;9732;52.498;5.408;2022-10-31T04:20:16;11.20;;;6.82;;
19199;SDS011;9732;52.498;5.408;2022-10-31T04:22:43;12.35;;;7.13;;
19199;SDS011;9732;52.498;5.408;2022-10-31T04:25:10;15.52;;;7.35;;
19199;SDS011;9732;52.498;5.408;2022-10-31T04:27:36;13.77;;;7.00;;
19199;SDS011;9732;52.498;5.408;2022-10-31T04:30:04;12.02;;;7.00;;
19199;SDS011;9732;52.498;5.408;2022-10-31T04:32:31;11.98;;;7.38;;
19199;SDS011;9732;52.498;5.408;2022-10-31T04:34:58;14.95;;;7.65;;
19199;SDS011;9732;52.498;5.408;2022-10-31T04:37:26;14.75;;;8.75;;
19199;SDS011;9732;52.498;5.408;2022-10-31T04:39:53;17.30;;;8.75;;
19199;SDS011;9732;52.498;5.408;2022-10-31T04:42:19;12.68;;;8.30;;
19199;SDS011;9732;52.498;5.408;2022-10-31T04:44:46;16.05;;;8.60;;
19199;SDS011;9732;52.498;5.408;2022-10-31T04:47:13;14.65;;;9.07;;
19199;SDS011;9732;52.498;5.408;2022-10-31T04:49:39;13.07;;;8.63;;
19199;SDS011;9732;52.498;5.408;2022-10-31T04:52:06;15.55;;;8.38;;
19199;SDS011;9732;52.498;5.408;2022-10-31T04:54:34;15.32;;;8.70;;
19199;SDS011;9732;52.498;5.408;2022-10-31T04:57:01;13.85;;;8.75;;
19199;SDS011;9732;52.498;5.408;2022-10-31T04:59:28;16.42;;;9.40;;
19199;SDS011;9732;52.498;5.408;2022-10-31T05:01:54;14.32;;;9.20;;
19199;SDS011;9732;52.498;5.408;2022-10-31T05:04:21;17.83;;;9.50;;
19199;SDS011;9732;52.498;5.408;2022-10-31T05:06:48;14.73;;;9.13;;
19199;SDS011;9732;52.498;5.408;2022-10-31T05:09:15;15.57;;;8.63;;
19199;SDS011;9732;52.498;5.408;2022-10-31T05:11:43;14.43;;;8.93;;
19199;SDS011;9732;52.498;5.408;2022-10-31T05:14:09;22.47;;;9.60;;
19199;SDS011;9732;52.498;5.408;2022-10-31T05:16:36;16.10;;;9.35;;
19199;SDS011;9732;52.498;5.408;2022-10-31T05:19:03;15.23;;;9.93;;
19199;SDS011;9732;52.498;5.408;2022-10-31T05:21:29;17.10;;;9.18;;
19199;SDS011;9732;52.498;5.408;2022-10-31T05:23:56;15.40;;;9.70;;
19199;SDS011;9732;52.498;5.408;2022-10-31T05:26:23;17.00;;;9.47;;
19199;SDS011;9732;52.498;5.408;2022-10-31T05:28:51;13.87;;;9.43;;
19199;SDS011;9732;52.498;5.408;2022-10-31T05:31:18;16.92;;;9.45;;
19199;SDS011;9732;52.498;5.408;2022-10-31T05:33:44;18.30;;;10.47;;
19199;SDS011;9732;52.498;5.408;2022-10-31T05:36:11;25.57;;;11.10;;
19199;SDS011;9732;52.498;5.408;2022-10-31T05:38:38;20.17;;;11.43;;
19199;SDS011;9732;52.498;5.408;2022-10-31T05:41:05;21.37;;;11.80;;
19199;SDS011;9732;52.498;5.408;2022-10-31T05:43:31;21.80;;;10.80;;
19199;SDS011;9732;52.498;5.408;2022-10-31T05:45:59;22.13;;;10.93;;
19199;SDS011;9732;52.498;5.408;2022-10-31T05:48:26;23.23;;;11.20;;
19199;SDS011;9732;52.498;5.408;2022-10-31T05:50:53;18.90;;;11.50;;
19199;SDS011;9732;52.498;5.408;2022-10-31T05:53:19;20.93;;;11.47;;
19199;SDS011;9732;52.498;5.408;2022-10-31T05:55:46;21.25;;;12.57;;
19199;SDS011;9732;52.498;5.408;2022-10-31T05:58:13;22.13;;;12.80;;
19199;SDS011;9732;52.498;5.408;2022-10-31T06:00:40;24.07;;;13.30;;
19199;SDS011;9732;52.498;5.408;2022-10-31T06:03:08;22.40;;;12.87;;
19199;SDS011;9732;52.498;5.408;2022-10-31T06:05:35;22.93;;;12.30;;
19199;SDS011;9732;52.498;5.408;2022-10-31T06:08:02;25.07;;;13.40;;
19199;SDS011;9732;52.498;5.408;2022-10-31T06:10:29;21.47;;;12.30;;
19199;SDS011;9732;52.498;5.408;2022-10-31T06:12:56;24.13;;;13.30;;
19199;SDS011;9732;52.498;5.408;2022-10-31T06:15:23;22.67;;;12.50;;
19199;SDS011;9732;52.498;5.408;2022-10-31T06:17:56;24.23;;;13.83;;
19199;SDS011;9732;52.498;5.408;2022-10-31T06:20:26;24.90;;;14.50;;
19199;SDS011;9732;52.498;5.408;2022-10-31T06:22:53;22.17;;;13.43;;
19199;SDS011;9732;52.498;5.408;2022-10-31T06:25:19;27.43;;;14.80;;
19199;SDS011;9732;52.498;5.408;2022-10-31T06:27:46;25.00;;;14.82;;
19199;SDS011;9732;52.498;5.408;2022-10-31T06:30:13;24.90;;;14.47;;
19199;SDS011;9732;52.498;5.408;2022-10-31T06:32:40;23.43;;;12.87;;
19199;SDS011;9732;52.498;5.408;2022-10-31T06:35:07;25.47;;;14.70;;
19199;SDS011;9732;52.498;5.408;2022-10-31T06:37:35;23.60;;;14.20;;
19199;SDS011;9732;52.498;5.408;2022-10-31T06:40:02;26.00;;;13.48;;
19199;SDS011;9732;52.498;5.408;2022-10-31T06:42:29;24.93;;;14.10;;
19199;SDS011;9732;52.498;5.408;2022-10-31T06:44:56;24.53;;;13.10;;
19199;SDS011;9732;52.498;5.408;2022-10-31T06:47:23;22.63;;;13.37;;
19199;SDS011;9732;52.498;5.408;2022-10-31T06:49:49;23.23;;;14.67;;
19199;SDS011;9732;52.498;5.408;2022-10-31T06:52:16;28.57;;;15.10;;
19199;SDS011;9732;52.498;5.408;2022-10-31T06:54:44;30.17;;;14.40;;
19199;SDS011;9732;52.498;5.408;2022-10-31T06:57:11;29.90;;;15.50;;
19199;SDS011;9732;52.498;5.408;2022-10-31T06:59:38;28.37;;;14.97;;
19199;SDS011;9732;52.498;5.408;2022-10-31T07:02:04;27.40;;;16.07;;
19199;SDS011;9732;52.498;5.408;2022-10-31T07:04:33;29.83;;;14.87;;
19199;SDS011;9732;52.498;5.408;2022-10-31T07:07:00;31.70;;;16.60;;
19199;SDS011;9732;52.498;5.408;2022-10-31T07:09:27;27.80;;;15.27;;
19199;SDS011;9732;52.498;5.408;2022-10-31T07:11:55;29.65;;;16.02;;
19199;SDS011;9732;52.498;5.408;2022-10-31T07:14:21;27.33;;;16.40;;
19199;SDS011;9732;52.498;5.408;2022-10-31T07:16:48;27.13;;;15.57;;
19199;SDS011;9732;52.498;5.408;2022-10-31T07:19:16;27.97;;;16.63;;
19199;SDS011;9732;52.498;5.408;2022-10-31T07:21:43;29.37;;;16.47;;
19199;SDS011;9732;52.498;5.408;2022-10-31T07:24:10;28.63;;;15.73;;
19199;SDS011;9732;52.498;5.408;2022-10-31T07:26:36;25.70;;;16.53;;
19199;SDS011;9732;52.498;5.408;2022-10-31T07:29:04;26.63;;;15.50;;
19199;SDS011;9732;52.498;5.408;2022-10-31T07:31:31;25.38;;;15.80;;
19199;SDS011;9732;52.498;5.408;2022-10-31T07:33:58;30.17;;;15.90;;
19199;SDS011;9732;52.498;5.408;2022-10-31T07:36:24;28.20;;;16.30;;
19199;SDS011;9732;52.498;5.408;2022-10-31T07:38:51;26.92;;;16.15;;
19199;SDS011;9732;52.498;5.408;2022-10-31T07:41:18;27.23;;;15.23;;
19199;SDS011;9732;52.498;5.408;2022-10-31T07:43:45;29.40;;;16.08;;
19199;SDS011;9732;52.498;5.408;2022-10-31T07:46:13;26.48;;;15.25;;
19199;SDS011;9732;52.498;5.408;2022-10-31T07:48:39;30.98;;;16.17;;
19199;SDS011;9732;52.498;5.408;2022-10-31T07:51:06;30.10;;;16.45;;
19199;SDS011;9732;52.498;5.408;2022-10-31T07:53:33;29.58;;;16.88;;
19199;SDS011;9732;52.498;5.408;2022-10-31T07:55:59;30.70;;;16.60;;
19199;SDS011;9732;52.498;5.408;2022-10-31T07:58:26;27.20;;;15.93;;
19199;SDS011;9732;52.498;5.408;2022-10-31T08:00:53;30.38;;;16.50;;
19199;SDS011;9732;52.498;5.408;2022-10-31T08:03:21;44.53;;;20.98;;
19199;SDS011;9732;52.498;5.408;2022-10-31T08:05:48;33.00;;;17.48;;
19199;SDS011;9732;52.498;5.408;2022-10-31T08:08:14;30.50;;;16.95;;
19199;SDS011;9732;52.498;5.408;2022-10-31T08:10:41;31.25;;;17.80;;
19199;SDS011;9732;52.498;5.408;2022-10-31T08:13:09;30.85;;;17.23;;
19199;SDS011;9732;52.498;5.408;2022-10-31T08:15:37;30.30;;;17.58;;
19199;SDS011;9732;52.498;5.408;2022-10-31T08:18:10;33.95;;;18.88;;
19199;SDS011;9732;52.498;5.408;2022-10-31T08:20:39;36.45;;;18.80;;
19199;SDS011;9732;52.498;5.408;2022-10-31T08:23:07;35.85;;;17.75;;
19199;SDS011;9732;52.498;5.408;2022-10-31T08:25:35;35.35;;;18.17;;
19199;SDS011;9732;52.498;5.408;2022-10-31T08:28:03;38.35;;;18.90;;
19199;SDS011;9732;52.498;5.408;2022-10-31T08:30:31;34.10;;;17.63;;
19199;SDS011;9732;52.498;5.408;2022-10-31T08:32:59;44.15;;;23.15;;
19199;SDS011;9732;52.498;5.408;2022-10-31T08:35:27;28.35;;;18.17;;
19199;SDS011;9732;52.498;5.408;2022-10-31T08:37:56;32.67;;;17.58;;
19199;SDS011;9732;52.498;5.408;2022-10-31T08:40:23;31.25;;;15.85;;
19199;SDS011;9732;52.498;5.408;2022-10-31T08:43:00;22.35;;;13.60;;
19199;SDS011;9732;52.498;5.408;2022-10-31T08:45:29;28.00;;;14.20;;
19199;SDS011;9732;52.498;5.408;2022-10-31T08:47:57;26.02;;;14.43;;
19199;SDS011;9732;52.498;5.408;2022-10-31T08:50:25;36.15;;;15.75;;
19199;SDS011;9732;52.498;5.408;2022-10-31T08:52:52;26.67;;;15.00;;
19199;SDS011;9732;52.498;5.408;2022-10-31T08:55:20;26.73;;;15.05;;
19199;SDS011;9732;52.498;5.408;2022-10-31T08:57:47;23.73;;;13.88;;
19199;SDS011;9732;52.498;5.408;2022-10-31T09:00:14;22.08;;;12.52;;
19199;SDS011;9732;52.498;5.408;2022-10-31T09:02:41;18.52;;;10.98;;
19199;SDS011;9732;52.498;5.408;2022-10-31T09:05:08;20.05;;;10.95;;
19199;SDS011;9732;52.498;5.408;2022-10-31T09:07:34;22.63;;;10.73;;
19199;SDS011;9732;52.498;5.408;2022-10-31T09:10:01;15.45;;;10.05;;
19199;SDS011;9732;52.498;5.408;2022-10-31T09:12:29;17.27;;;10.35;;
19199;SDS011;9732;52.498;5.408;2022-10-31T09:14:56;14.73;;;9.15;;
19199;SDS011;9732;52.498;5.408;2022-10-31T09:17:25;20.35;;;10.23;;
19199;SDS011;9732;52.498;5.408;2022-10-31T09:19:54;19.25;;;9.43;;
19199;SDS011;9732;52.498;5.408;2022-10-31T09:22:20;17.88;;;8.98;;
19199;SDS011;9732;52.498;5.408;2022-10-31T09:24:47;14.15;;;8.88;;
19199;SDS011;9732;52.498;5.408;2022-10-31T09:27:14;15.20;;;8.38;;
19199;SDS011;9732;52.498;5.408;2022-10-31T09:29:42;13.88;;;8.68;;
19199;SDS011;9732;52.498;5.408;2022-10-31T09:32:09;13.55;;;8.23;;
19199;SDS011;9732;52.498;5.408;2022-10-31T09:34:35;11.93;;;8.25;;
19199;SDS011;9732;52.498;5.408;2022-10-31T09:37:02;14.02;;;7.78;;
19199;SDS011;9732;52.498;5.408;2022-10-31T09:39:29;10.20;;;7.10;;
19199;SDS011;9732;52.498;5.408;2022-10-31T09:42:01;12.02;;;7.78;;
19199;SDS011;9732;52.498;5.408;2022-10-31T09:44:39;15.82;;;7.93;;
19199;SDS011;9732;52.498;5.408;2022-10-31T09:47:17;18.15;;;9.23;;
19199;SDS011;9732;52.498;5.408;2022-10-31T09:49:59;15.75;;;8.52;;
19199;SDS011;9732;52.498;5.408;2022-10-31T09:52:39;13.45;;;8.00;;
19199;SDS011;9732;52.498;5.408;2022-10-31T09:55:13;11.75;;;7.03;;
19199;SDS011;9732;52.498;5.408;2022-10-31T09:57:43;12.77;;;7.80;;
19199;SDS011;9732;52.498;5.408;2022-10-31T10:00:15;11.70;;;6.82;;
19199;SDS011;9732;52.498;5.408;2022-10-31T10:02:47;14.55;;;7.65;;
19199;SDS011;9732;52.498;5.408;2022-10-31T10:05:17;11.82;;;7.85;;
19199;SDS011;9732;52.498;5.408;2022-10-31T10:07:49;14.60;;;7.57;;
19199;SDS011;9732;52.498;5.408;2022-10-31T10:10:27;14.90;;;7.95;;
19199;SDS011;9732;52.498;5.408;2022-10-31T10:13:05;12.65;;;7.38;;
19199;SDS011;9732;52.498;5.408;2022-10-31T10:16:03;11.65;;;7.70;;
19199;SDS011;9732;52.498;5.408;2022-10-31T10:18:43;16.48;;;8.10;;
19199;SDS011;9732;52.498;5.408;2022-10-31T10:21:24;13.73;;;7.72;;
19199;SDS011;9732;52.498;5.408;2022-10-31T10:24:00;19.25;;;7.93;;
19199;SDS011;9732;52.498;5.408;2022-10-31T10:26:37;16.02;;;8.20;;
19199;SDS011;9732;52.498;5.408;2022-10-31T10:29:12;14.48;;;7.47;;
19199;SDS011;9732;52.498;5.408;2022-10-31T10:31:50;11.60;;;5.90;;
19199;SDS011;9732;52.498;5.408;2022-10-31T10:34:19;9.80;;;6.32;;
19199;SDS011;9732;52.498;5.408;2022-10-31T10:36:52;17.85;;;6.53;;
19199;SDS011;9732;52.498;5.408;2022-10-31T10:39:24;10.43;;;6.80;;
19199;SDS011;9732;52.498;5.408;2022-10-31T10:41:57;13.13;;;6.75;;
19199;SDS011;9732;52.498;5.408;2022-10-31T10:44:43;14.25;;;7.35;;
19199;SDS011;9732;52.498;5.408;2022-10-31T10:47:33;14.93;;;7.20;;
19199;SDS011;9732;52.498;5.408;2022-10-31T10:50:07;13.80;;;7.18;;
19199;SDS011;9732;52.498;5.408;2022-10-31T10:52:41;11.25;;;6.78;;
19199;SDS011;9732;52.498;5.408;2022-10-31T10:55:16;14.85;;;8.20;;
19199;SDS011;9732;52.498;5.408;2022-10-31T10:57:54;13.38;;;7.85;;
19199;SDS011;9732;52.498;5.408;2022-10-31T11:00:23;15.98;;;8.77;;
19199;SDS011;9732;52.498;5.408;2022-10-31T11:02:53;14.25;;;7.85;;
19199;SDS011;9732;52.498;5.408;2022-10-31T11:05:26;21.00;;;8.88;;
19199;SDS011;9732;52.498;5.408;2022-10-31T11:07:59;12.50;;;7.68;;
19199;SDS011;9732;52.498;5.408;2022-10-31T11:10:25;19.75;;;8.80;;
19199;SDS011;9732;52.498;5.408;2022-10-31T11:13:04;24.05;;;11.02;;
19199;SDS011;9732;52.498;5.408;2022-10-31T11:15:49;19.98;;;9.98;;
19199;SDS011;9732;52.498;5.408;2022-10-31T11:18:21;23.48;;;11.27;;
19199;SDS011;9732;52.498;5.408;2022-10-31T11:20:51;20.10;;;10.00;;
19199;SDS011;9732;52.498;5.408;2022-10-31T11:23:19;20.52;;;10.80;;
19199;SDS011;9732;52.498;5.408;2022-10-31T11:25:48;26.50;;;12.02;;
19199;SDS011;9732;52.498;5.408;2022-10-31T11:28:20;24.75;;;12.10;;
19199;SDS011;9732;52.498;5.408;2022-10-31T11:30:48;18.85;;;10.00;;
19199;SDS011;9732;52.498;5.408;2022-10-31T11:33:19;17.75;;;9.45;;
19199;SDS011;9732;52.498;5.408;2022-10-31T11:35:50;14.02;;;8.80;;
19199;SDS011;9732;52.498;5.408;2022-10-31T11:38:20;15.95;;;8.30;;
19199;SDS011;9732;52.498;5.408;2022-10-31T11:40:51;15.02;;;8.73;;
19199;SDS011;9732;52.498;5.408;2022-10-31T11:43:20;14.57;;;8.10;;
19199;SDS011;9732;52.498;5.408;2022-10-31T11:45:48;23.65;;;11.93;;
19199;SDS011;9732;52.498;5.408;2022-10-31T11:48:15;15.80;;;7.63;;
19199;SDS011;9732;52.498;5.408;2022-10-31T11:50:47;17.05;;;7.97;;
19199;SDS011;9732;52.498;5.408;2022-10-31T11:53:16;11.70;;;5.25;;
19199;SDS011;9732;52.498;5.408;2022-10-31T11:55:45;11.35;;;4.68;;
19199;SDS011;9732;52.498;5.408;2022-10-31T11:58:19;10.55;;;5.38;;
19199;SDS011;9732;52.498;5.408;2022-10-31T12:00:48;15.07;;;5.40;;
19199;SDS011;9732;52.498;5.408;2022-10-31T12:03:33;10.05;;;4.65;;
19199;SDS011;9732;52.498;5.408;2022-10-31T12:06:09;11.25;;;5.40;;
19199;SDS011;9732;52.498;5.408;2022-10-31T12:08:39;9.95;;;5.53;;
19199;SDS011;9732;52.498;5.408;2022-10-31T12:11:10;12.13;;;5.25;;
19199;SDS011;9732;52.498;5.408;2022-10-31T12:13:48;10.75;;;5.85;;
19199;SDS011;9732;52.498;5.408;2022-10-31T12:16:26;10.27;;;5.03;;
19199;SDS011;9732;52.498;5.408;2022-10-31T12:18:59;10.40;;;5.68;;
19199;SDS011;9732;52.498;5.408;2022-10-31T12:21:37;13.68;;;6.10;;
19199;SDS011;9732;52.498;5.408;2022-10-31T12:24:27;12.73;;;5.22;;
19199;SDS011;9732;52.498;5.408;2022-10-31T12:27:08;13.70;;;5.40;;
19199;SDS011;9732;52.498;5.408;2022-10-31T12:29:49;11.18;;;5.25;;
19199;SDS011;9732;52.498;5.408;2022-10-31T12:32:39;13.68;;;6.95;;
19199;SDS011;9732;52.498;5.408;2022-10-31T12:38:18;15.63;;;6.80;;
19199;SDS011;9732;52.498;5.408;2022-10-31T12:41:03;15.13;;;7.00;;
19199;SDS011;9732;52.498;5.408;2022-10-31T12:43:48;19.38;;;6.88;;
19199;SDS011;9732;52.498;5.408;2022-10-31T12:46:25;14.70;;;7.18;;
19199;SDS011;9732;52.498;5.408;2022-10-31T12:49:09;15.02;;;7.30;;
19199;SDS011;9732;52.498;5.408;2022-10-31T12:51:46;19.75;;;8.05;;
19199;SDS011;9732;52.498;5.408;2022-10-31T12:54:28;16.92;;;7.25;;
19199;SDS011;9732;52.498;5.408;2022-10-31T12:57:16;18.15;;;7.55;;
19199;SDS011;9732;52.498;5.408;2022-10-31T12:59:50;16.42;;;8.25;;
19199;SDS011;9732;52.498;5.408;2022-10-31T13:02:20;19.77;;;8.85;;
19199;SDS011;9732;52.498;5.408;2022-10-31T13:04:51;15.02;;;9.32;;
19199;SDS011;9732;52.498;5.408;2022-10-31T13:07:23;24.80;;;11.10;;
19199;SDS011;9732;52.498;5.408;2022-10-31T13:09:56;23.70;;;10.73;;
19199;SDS011;9732;52.498;5.408;2022-10-31T13:12:27;28.27;;;11.13;;
19199;SDS011;9732;52.498;5.408;2022-10-31T13:14:56;22.63;;;10.65;;
19199;SDS011;9732;52.498;5.408;2022-10-31T13:17:28;27.67;;;10.82;;
19199;SDS011;9732;52.498;5.408;2022-10-31T13:20:02;29.13;;;10.88;;
19199;SDS011;9732;52.498;5.408;2022-10-31T13:22:40;22.20;;;10.73;;
19199;SDS011;9732;52.498;5.408;2022-10-31T13:25:13;23.42;;;10.05;;
19199;SDS011;9732;52.498;5.408;2022-10-31T13:27:45;22.38;;;10.95;;
19199;SDS011;9732;52.498;5.408;2022-10-31T13:30:16;22.13;;;11.00;;
19199;SDS011;9732;52.498;5.408;2022-10-31T13:32:46;27.25;;;11.75;;
19199;SDS011;9732;52.498;5.408;2022-10-31T13:35:19;32.42;;;12.77;;
19199;SDS011;9732;52.498;5.408;2022-10-31T13:37:53;24.58;;;11.40;;
19199;SDS011;9732;52.498;5.408;2022-10-31T13:40:35;38.45;;;13.05;;
19199;SDS011;9732;52.498;5.408;2022-10-31T13:43:11;27.65;;;13.15;;
19199;SDS011;9732;52.498;5.408;2022-10-31T13:45:50;29.55;;;13.23;;
19199;SDS011;9732;52.498;5.408;2022-10-31T13:48:19;34.50;;;14.52;;
19199;SDS011;9732;52.498;5.408;2022-10-31T13:50:59;36.05;;;14.68;;
19199;SDS011;9732;52.498;5.408;2022-10-31T13:53:35;35.58;;;14.23;;
19199;SDS011;9732;52.498;5.408;2022-10-31T13:56:11;39.17;;;13.90;;
19199;SDS011;9732;52.498;5.408;2022-10-31T13:58:42;37.20;;;14.23;;
19199;SDS011;9732;52.498;5.408;2022-10-31T14:01:24;31.08;;;13.73;;
19199;SDS011;9732;52.498;5.408;2022-10-31T14:03:59;36.60;;;15.00;;
19199;SDS011;9732;52.498;5.408;2022-10-31T14:06:36;25.50;;;14.15;;
19199;SDS011;9732;52.498;5.408;2022-10-31T14:09:14;34.40;;;15.40;;
19199;SDS011;9732;52.498;5.408;2022-10-31T14:11:46;35.78;;;14.65;;
19199;SDS011;9732;52.498;5.408;2022-10-31T14:14:14;29.88;;;14.63;;
19199;SDS011;9732;52.498;5.408;2022-10-31T14:16:42;28.75;;;14.30;;
19199;SDS011;9732;52.498;5.408;2022-10-31T14:19:13;33.88;;;15.07;;
19199;SDS011;9732;52.498;5.408;2022-10-31T14:21:44;33.55;;;13.65;;
19199;SDS011;9732;52.498;5.408;2022-10-31T14:24:15;34.13;;;14.85;;
19199;SDS011;9732;52.498;5.408;2022-10-31T14:27:01;36.80;;;15.27;;
19199;SDS011;9732;52.498;5.408;2022-10-31T14:29:29;36.88;;;15.15;;
19199;SDS011;9732;52.498;5.408;2022-10-31T14:31:58;31.98;;;14.57;;
19199;SDS011;9732;52.498;5.408;2022-10-31T14:34:39;30.13;;;13.80;;
19199;SDS011;9732;52.498;5.408;2022-10-31T14:37:14;27.75;;;14.10;;
19199;SDS011;9732;52.498;5.408;2022-10-31T14:40:06;36.00;;;15.50;;
19199;SDS011;9732;52.498;5.408;2022-10-31T14:42:59;32.78;;;13.73;;
19199;SDS011;9732;52.498;5.408;2022-10-31T14:45:48;27.90;;;13.95;;
19199;SDS011;9732;52.498;5.408;2022-10-31T14:48:34;35.17;;;14.02;;
19199;SDS011;9732;52.498;5.408;2022-10-31T14:51:25;52.05;;;25.08;;
19199;SDS011;9732;52.498;5.408;2022-10-31T14:53:56;41.08;;;14.77;;
19199;SDS011;9732;52.498;5.408;2022-10-31T14:56:26;31.92;;;14.27;;
19199;SDS011;9732;52.498;5.408;2022-10-31T14:58:57;31.98;;;14.07;;
19199;SDS011;9732;52.498;5.408;2022-10-31T15:01:27;29.70;;;13.55;;
19199;SDS011;9732;52.498;5.408;2022-10-31T15:03:57;30.90;;;12.85;;
19199;SDS011;9732;52.498;5.408;2022-10-31T15:06:28;30.88;;;13.48;;
19199;SDS011;9732;52.498;5.408;2022-10-31T15:09:03;31.60;;;13.30;;